createdAt,value
2023-05-10T00:01:39.666Z,16
2023-05-10T00:04:10.491Z,20
2023-05-10T00:06:40.684Z,17
2023-05-10T00:09:10.699Z,16
2023-05-10T00:11:41.057Z,18
2023-05-10T00:14:11.472Z,16
2023-05-10T00:16:41.894Z,19
2023-05-10T00:19:12.538Z,16
2023-05-10T00:21:43.114Z,19
2023-05-10T00:24:14.146Z,15
2023-05-10T00:26:44.913Z,15
2023-05-10T00:29:15.500Z,16
2023-05-10T00:31:45.916Z,16
2023-05-10T00:34:16.154Z,16
2023-05-10T00:36:46.878Z,18
2023-05-10T00:39:17.277Z,16
2023-05-10T00:41:47.538Z,20
2023-05-10T00:44:17.695Z,20
2023-05-10T00:46:48.504Z,16
2023-05-10T00:49:18.846Z,16
2023-05-10T00:51:47.507Z,16
2023-05-10T00:54:17.514Z,16
2023-05-10T00:56:47.442Z,16
2023-05-10T00:59:17.828Z,16
2023-05-10T01:01:48.418Z,12
2023-05-10T01:04:19.288Z,20
2023-05-10T01:06:49.653Z,15
2023-05-10T01:09:19.861Z,12
2023-05-10T01:11:50.599Z,15
2023-05-10T01:14:20.366Z,20
2023-05-10T01:16:51.014Z,16
2023-05-10T01:19:21.274Z,17
2023-05-10T01:21:51.910Z,16
2023-05-10T01:24:22.614Z,15
2023-05-10T01:26:52.786Z,17
2023-05-10T01:29:23.222Z,12
2023-05-10T01:31:53.812Z,20
2023-05-10T01:34:23.972Z,16
2023-05-10T01:36:54.733Z,12
2023-05-10T01:39:24.881Z,16
2023-05-10T01:41:55.012Z,16
2023-05-10T01:44:25.427Z,13
2023-05-10T01:46:56.291Z,14
2023-05-10T01:49:27.102Z,16
2023-05-10T01:51:57.430Z,15
2023-05-10T01:54:28.249Z,16
2023-05-10T01:56:58.905Z,16
2023-05-10T01:59:29.567Z,18
2023-05-10T02:02:00.099Z,24
2023-05-10T02:04:30.737Z,24
2023-05-10T02:07:01.167Z,28
2023-05-10T02:09:30.405Z,28
2023-05-10T02:12:01.088Z,24
2023-05-10T02:14:31.445Z,32
2023-05-10T02:17:01.799Z,32
2023-05-10T02:19:32.062Z,28
2023-05-10T02:22:02.623Z,24
2023-05-10T02:24:33.120Z,23
2023-05-10T02:27:03.941Z,20
2023-05-10T02:29:34.103Z,20
2023-05-10T02:32:04.346Z,20
2023-05-10T02:34:34.517Z,16
2023-05-10T02:37:09.283Z,20
2023-05-10T02:39:40.123Z,20
2023-05-10T02:42:10.558Z,16
2023-05-10T02:44:41.800Z,19
2023-05-10T02:47:12.482Z,12
2023-05-10T02:49:42.654Z,13
2023-05-10T02:52:12.900Z,18
2023-05-10T02:54:43.249Z,16
2023-05-10T02:57:13.694Z,17
2023-05-10T02:59:44.243Z,11
2023-05-10T03:02:14.874Z,15
2023-05-10T03:04:45.636Z,12
2023-05-10T03:07:16.624Z,16
2023-05-10T03:09:47.418Z,18
2023-05-10T03:12:17.903Z,16
2023-05-10T03:14:48.375Z,16
2023-05-10T03:17:18.744Z,16
2023-05-10T03:19:49.271Z,13
2023-05-10T03:22:19.848Z,16
2023-05-10T03:24:49.996Z,16
2023-05-10T03:27:20.483Z,16
2023-05-10T03:29:51.419Z,16
2023-05-10T03:32:21.560Z,16
2023-05-10T03:34:52.234Z,14
2023-05-10T03:37:22.557Z,16
2023-05-10T03:39:53.161Z,16
2023-05-10T03:42:23.437Z,19
2023-05-10T03:44:53.866Z,20
2023-05-10T03:47:23.997Z,20
2023-05-10T03:49:54.706Z,20
2023-05-10T03:52:25.294Z,19
2023-05-10T03:54:55.545Z,16
2023-05-10T03:57:26.256Z,19
2023-05-10T03:59:56.395Z,20
2023-05-10T04:02:27.023Z,16
2023-05-10T04:04:57.341Z,20
2023-05-10T04:07:28.315Z,16
2023-05-10T04:09:59.134Z,18
2023-05-10T04:12:29.816Z,20
2023-05-10T04:14:59.597Z,16
2023-05-10T04:17:30.397Z,20
2023-05-10T04:20:04.392Z,20
2023-05-10T04:22:35.084Z,16
2023-05-10T04:25:05.574Z,24
2023-05-10T04:27:35.858Z,24
2023-05-10T04:30:06.107Z,19
2023-05-10T04:32:36.388Z,20
2023-05-10T04:35:06.643Z,20
2023-05-10T04:37:37.034Z,24
2023-05-10T04:40:07.522Z,22
2023-05-10T04:42:37.838Z,24
2023-05-10T04:45:08.220Z,24
2023-05-10T04:47:38.791Z,16
2023-05-10T04:50:09.465Z,20
2023-05-10T04:52:40.261Z,20
2023-05-10T04:55:10.573Z,21
2023-05-10T04:57:39.453Z,24
2023-05-10T05:00:09.678Z,20
2023-05-10T05:02:40.105Z,24
2023-05-10T05:05:10.875Z,31
2023-05-10T05:07:41.440Z,21
2023-05-10T05:10:11.406Z,24
2023-05-10T05:12:41.266Z,20
2023-05-10T05:15:11.995Z,20
2023-05-10T05:17:42.216Z,20
2023-05-10T05:20:12.325Z,20
2023-05-10T05:22:42.614Z,21
2023-05-10T05:25:13.061Z,21
2023-05-10T05:27:43.935Z,20
2023-05-10T05:30:14.560Z,17
2023-05-10T05:32:44.961Z,20
2023-05-10T05:35:15.796Z,16
2023-05-10T05:37:46.743Z,24
2023-05-10T05:40:17.017Z,21
2023-05-10T05:42:47.982Z,23
2023-05-10T05:45:18.905Z,24
2023-05-10T05:47:49.247Z,21
2023-05-10T05:50:19.815Z,20
2023-05-10T05:52:50.205Z,20
2023-05-10T05:55:20.370Z,23
2023-05-10T05:57:50.568Z,20
2023-05-10T06:00:21.490Z,19
2023-05-10T06:02:51.703Z,16
2023-05-10T06:05:21.917Z,16
2023-05-10T06:07:52.583Z,20
2023-05-10T06:10:22.567Z,18
2023-05-10T06:12:53.830Z,24
2023-05-10T06:15:24.343Z,16
2023-05-10T06:17:54.562Z,16
2023-05-10T06:20:25.292Z,20
2023-05-10T06:22:55.889Z,15
2023-05-10T06:25:26.104Z,12
2023-05-10T06:27:56.836Z,16
2023-05-10T06:30:27.489Z,20
2023-05-10T06:32:57.600Z,16
2023-05-10T06:35:27.536Z,16
2023-05-10T06:37:58.378Z,16
2023-05-10T06:40:28.863Z,15
2023-05-10T06:42:59.814Z,16
2023-05-10T06:45:30.513Z,19
2023-05-10T06:48:00.886Z,12
2023-05-10T06:50:31.133Z,20
2023-05-10T06:53:01.444Z,16
2023-05-10T06:55:32.473Z,17
2023-05-10T06:58:02.897Z,16
2023-05-10T07:00:33.326Z,20
2023-05-10T07:03:04.177Z,20
2023-05-10T07:05:34.987Z,16
2023-05-10T07:08:05.651Z,16
2023-05-10T07:10:37.479Z,15
2023-05-10T07:13:08.474Z,16
2023-05-10T07:15:39.180Z,16
2023-05-10T07:18:09.802Z,16
2023-05-10T07:20:43.315Z,16
2023-05-10T07:23:13.902Z,16
2023-05-10T07:25:44.044Z,12
2023-05-10T07:28:14.573Z,16
2023-05-10T07:30:45.172Z,16
2023-05-10T07:33:15.944Z,13
2023-05-10T07:35:46.648Z,12
2023-05-10T07:38:21.851Z,10
2023-05-10T07:40:52.326Z,11
2023-05-10T07:43:23.773Z,12
2023-05-10T07:45:57.997Z,12
2023-05-10T07:48:28.348Z,12
2023-05-10T07:50:59.411Z,12
2023-05-10T07:53:33.567Z,12
2023-05-10T07:56:14.697Z,12
2023-05-10T07:58:45.169Z,13
2023-05-10T08:01:15.279Z,12
2023-05-10T08:03:46.578Z,12
2023-05-10T08:06:21.624Z,8
2023-05-10T08:08:53.625Z,12
2023-05-10T08:11:28.103Z,12
2023-05-10T08:13:58.229Z,12
2023-05-10T08:16:28.823Z,15
2023-05-10T08:18:59.690Z,9
2023-05-10T08:21:33.901Z,12
2023-05-10T08:24:04.706Z,8
2023-05-10T08:26:35.085Z,12
2023-05-10T08:29:05.550Z,11
2023-05-10T08:31:36.247Z,12
2023-05-10T08:34:13.085Z,11
2023-05-10T08:36:42.909Z,9
2023-05-10T08:39:19.416Z,12
2023-05-10T08:41:43.825Z,16
2023-05-10T08:44:14.370Z,12
2023-05-10T08:46:47.617Z,12
2023-05-10T08:49:18.005Z,8
2023-05-10T08:51:48.247Z,12
2023-05-10T08:54:18.674Z,8
2023-05-10T08:56:49.951Z,8
2023-05-10T08:59:20.764Z,8
2023-05-10T09:01:49.901Z,13
2023-05-10T09:04:22.276Z,8
2023-05-10T09:06:52.618Z,12
2023-05-10T09:09:23.204Z,8
2023-05-10T09:11:54.983Z,10
2023-05-10T09:14:25.953Z,9
2023-05-10T09:16:56.465Z,12
2023-05-10T09:19:27.031Z,9
2023-05-10T09:21:57.352Z,12
2023-05-10T09:24:27.831Z,8
2023-05-10T09:26:58.207Z,9
2023-05-10T09:29:29.094Z,10
2023-05-10T09:32:04.340Z,8
2023-05-10T09:34:35.573Z,8
2023-05-10T09:37:06.482Z,8
2023-05-10T09:39:37.011Z,8
2023-05-10T09:42:12.646Z,12
2023-05-10T09:44:43.307Z,8
2023-05-10T09:47:13.750Z,9
2023-05-10T09:49:46.542Z,11
2023-05-10T09:52:17.506Z,8
2023-05-10T09:54:58.167Z,8
2023-05-10T09:57:38.227Z,8
2023-05-10T10:00:09.105Z,12
2023-05-10T10:02:39.781Z,12
2023-05-10T10:05:13.405Z,12
2023-05-10T10:07:45.959Z,8
2023-05-10T10:10:16.921Z,12
2023-05-10T10:12:48.069Z,12
2023-05-10T10:15:19.051Z,11
2023-05-10T10:17:49.623Z,12
2023-05-10T10:20:20.850Z,13
2023-05-10T10:22:54.397Z,8
2023-05-10T10:25:24.828Z,8
2023-05-10T10:27:54.969Z,10
2023-05-10T10:30:25.603Z,12
2023-05-10T10:32:57.694Z,12
2023-05-10T10:35:26.659Z,12
2023-05-10T10:37:59.145Z,8
2023-05-10T10:40:31.382Z,12
2023-05-10T10:43:00.671Z,12
2023-05-10T10:45:32.412Z,12
2023-05-10T10:48:03.048Z,8
2023-05-10T10:50:33.384Z,9
2023-05-10T10:53:04.232Z,12
2023-05-10T10:55:34.774Z,10
2023-05-10T10:58:09.000Z,8
2023-05-10T11:00:39.688Z,8
2023-05-10T11:03:10.099Z,9
2023-05-10T11:05:42.547Z,12
2023-05-10T11:08:13.157Z,8
2023-05-10T11:10:44.161Z,8
2023-05-10T11:13:14.361Z,8
2023-05-10T11:15:44.735Z,12
2023-05-10T11:18:14.929Z,8
2023-05-10T11:20:45.317Z,12
2023-05-10T11:23:15.781Z,8
2023-05-10T11:25:46.228Z,8
2023-05-10T11:28:16.818Z,8
2023-05-10T11:30:49.779Z,12
2023-05-10T11:33:20.549Z,9
2023-05-10T11:35:55.085Z,8
2023-05-10T11:38:27.081Z,12
2023-05-10T11:40:58.868Z,8
2023-05-10T11:43:29.233Z,8
2023-05-10T11:45:59.922Z,8
2023-05-10T11:48:30.705Z,12
2023-05-10T11:51:00.958Z,8
2023-05-10T11:53:31.448Z,8
2023-05-10T11:56:02.538Z,8
2023-05-10T11:58:33.119Z,8
2023-05-10T12:01:07.855Z,6
2023-05-10T12:03:38.178Z,8
2023-05-10T12:06:09.080Z,8
2023-05-10T12:08:41.111Z,8
2023-05-10T12:11:11.622Z,8
2023-05-10T12:13:41.918Z,8
2023-05-10T12:16:14.706Z,11
2023-05-10T12:18:44.976Z,8
2023-05-10T12:21:16.518Z,8
2023-05-10T12:23:49.480Z,8
2023-05-10T12:26:19.472Z,8
2023-05-10T12:28:50.049Z,9
2023-05-10T12:31:20.571Z,12
2023-05-10T12:33:50.835Z,8
2023-05-10T12:36:21.373Z,6
2023-05-10T12:38:55.117Z,8
2023-05-10T12:41:26.801Z,8
2023-05-10T12:43:59.528Z,8
2023-05-10T12:46:30.065Z,8
2023-05-10T12:49:08.797Z,8
2023-05-10T12:51:31.239Z,5
2023-05-10T12:54:01.885Z,4
2023-05-10T12:56:33.112Z,10
2023-05-10T12:59:03.747Z,8
2023-05-10T13:01:34.323Z,8
2023-05-10T13:04:04.827Z,8
2023-05-10T13:06:34.839Z,8
2023-05-10T13:09:04.687Z,8
2023-05-10T13:11:35.340Z,8
2023-05-10T13:14:06.029Z,8
2023-05-10T13:19:17.257Z,8
2023-05-10T13:21:51.236Z,4
2023-05-10T13:24:25.252Z,8
2023-05-10T13:26:56.436Z,7
2023-05-10T13:29:27.040Z,8
2023-05-10T13:31:57.365Z,4
2023-05-10T13:34:27.888Z,7
2023-05-10T13:36:58.643Z,8
2023-05-10T13:39:28.700Z,8
2023-05-10T13:41:58.822Z,4
2023-05-10T13:47:05.129Z,8
2023-05-10T13:49:40.314Z,8
2023-05-10T13:52:22.561Z,4
2023-05-10T13:54:52.428Z,8
2023-05-10T13:57:30.410Z,4
2023-05-10T14:00:00.334Z,8
2023-05-10T14:02:33.443Z,8
2023-05-10T14:05:03.800Z,8
2023-05-10T14:07:39.741Z,7
2023-05-10T14:10:12.825Z,5
2023-05-10T14:12:44.289Z,8
2023-05-10T14:15:23.995Z,4
2023-05-10T14:17:58.202Z,8
2023-05-10T14:20:27.568Z,11
2023-05-10T14:22:57.812Z,5
2023-05-10T14:25:27.832Z,8
2023-05-10T14:27:57.982Z,8
2023-05-10T14:30:28.349Z,8
2023-05-10T14:32:58.755Z,4
2023-05-10T14:35:29.026Z,12
2023-05-10T14:37:59.175Z,8
2023-05-10T14:40:28.924Z,8
2023-05-10T14:42:59.081Z,8
2023-05-10T14:45:30.095Z,9
2023-05-10T14:48:01.473Z,8
2023-05-10T14:50:36.769Z,12
2023-05-10T14:53:08.737Z,8
2023-05-10T14:55:38.728Z,8
2023-05-10T14:58:08.947Z,8
2023-05-10T15:00:39.784Z,8
2023-05-10T15:03:18.032Z,8
2023-05-10T15:05:52.328Z,4
2023-05-10T15:08:22.289Z,7
2023-05-10T15:10:56.088Z,4
2023-05-10T15:13:26.786Z,4
2023-05-10T15:15:57.646Z,8
2023-05-10T15:18:29.640Z,13
2023-05-10T15:20:59.834Z,8
2023-05-10T15:23:32.078Z,8
2023-05-10T15:26:02.188Z,4
2023-05-10T15:28:34.273Z,8
2023-05-10T15:31:12.444Z,8
2023-05-10T15:33:42.811Z,8
2023-05-10T15:36:13.050Z,4
2023-05-10T15:38:47.390Z,4
2023-05-10T15:41:23.736Z,5
2023-05-10T15:43:53.948Z,8
2023-05-10T15:46:24.177Z,4
2023-05-10T15:48:55.774Z,8
2023-05-10T15:51:25.599Z,4
2023-05-10T15:54:06.248Z,4
2023-05-10T15:56:27.354Z,8
2023-05-10T15:58:57.409Z,4
2023-05-10T16:01:27.568Z,8
2023-05-10T16:03:57.893Z,5
2023-05-10T16:06:28.409Z,4
2023-05-10T16:08:58.797Z,8
2023-05-10T16:11:28.971Z,4
2023-05-10T16:14:02.963Z,4
2023-05-10T16:16:34.621Z,8
2023-05-10T16:19:06.534Z,8
2023-05-10T16:21:37.784Z,4
2023-05-10T16:24:10.043Z,8
2023-05-10T16:26:50.352Z,8
2023-05-10T16:29:21.725Z,8
2023-05-10T16:31:53.147Z,11
2023-05-10T16:34:24.122Z,8
2023-05-10T16:36:56.696Z,8
2023-05-10T16:39:36.010Z,8
2023-05-10T16:42:06.442Z,8
2023-05-10T16:44:41.830Z,7
2023-05-10T16:47:12.216Z,8
2023-05-10T16:49:42.773Z,8
2023-05-10T16:52:13.202Z,8
2023-05-10T16:54:43.366Z,8
2023-05-10T16:57:17.139Z,8
2023-05-10T16:59:47.471Z,8
2023-05-10T17:02:18.064Z,12
2023-05-10T17:04:48.509Z,8
2023-05-10T17:07:18.388Z,12
2023-05-10T17:09:51.448Z,8
2023-05-10T17:12:22.133Z,10
2023-05-10T17:14:52.143Z,12
2023-05-10T17:17:24.489Z,12
2023-05-10T17:19:59.001Z,8
2023-05-10T17:22:29.645Z,8
2023-05-10T17:24:59.840Z,10
2023-05-10T17:27:34.307Z,8
2023-05-10T17:30:04.455Z,11
2023-05-10T17:32:34.585Z,8
2023-05-10T17:35:07.647Z,12
2023-05-10T17:37:39.229Z,8
2023-05-10T17:40:11.690Z,8
2023-05-10T17:42:42.191Z,12
2023-05-10T17:45:12.454Z,11
2023-05-10T17:47:43.210Z,12
2023-05-10T17:50:15.584Z,12
2023-05-10T17:52:46.170Z,12
2023-05-10T17:55:16.776Z,12
2023-05-10T17:57:49.975Z,12
2023-05-10T18:00:19.554Z,13
2023-05-10T18:02:49.941Z,10
2023-05-10T18:05:24.529Z,8
2023-05-10T18:07:54.513Z,12
2023-05-10T18:10:24.504Z,9
2023-05-10T18:12:54.974Z,12
2023-05-10T18:15:26.112Z,12
2023-05-10T18:17:58.586Z,9
2023-05-10T18:20:28.935Z,12
2023-05-10T18:23:03.543Z,12
2023-05-10T18:25:33.768Z,13
2023-05-10T18:28:04.414Z,12
2023-05-10T18:30:34.918Z,11
2023-05-10T18:33:12.982Z,8
2023-05-10T18:35:49.830Z,12
2023-05-10T18:38:28.407Z,12
2023-05-10T18:40:58.642Z,11
2023-05-10T18:43:29.055Z,8
2023-05-10T18:45:59.466Z,8
2023-05-10T18:48:29.973Z,12
2023-05-10T18:51:00.830Z,12
2023-05-10T18:53:31.361Z,12
2023-05-10T18:56:00.363Z,9
2023-05-10T18:58:34.761Z,10
2023-05-10T19:01:06.373Z,12
2023-05-10T19:03:36.788Z,8
2023-05-10T19:06:07.234Z,12
2023-05-10T19:08:37.893Z,9
2023-05-10T19:11:08.492Z,12
2023-05-10T19:13:45.244Z,12
2023-05-10T19:16:16.744Z,12
2023-05-10T19:18:52.247Z,16
2023-05-10T19:21:23.383Z,12
2023-05-10T19:23:54.529Z,8
2023-05-10T19:26:25.917Z,12
2023-05-10T19:28:57.989Z,12
2023-05-10T19:31:30.429Z,12
2023-05-10T19:34:01.175Z,14
2023-05-10T19:36:34.931Z,18
2023-05-10T19:39:09.236Z,8
2023-05-10T19:41:44.820Z,8
2023-05-10T19:44:15.014Z,12
2023-05-10T19:46:45.388Z,15
2023-05-10T19:49:16.665Z,12
2023-05-10T19:51:49.125Z,11
2023-05-10T19:54:19.687Z,12
2023-05-10T19:56:51.678Z,8
2023-05-10T19:59:23.611Z,12
2023-05-10T20:01:54.365Z,12
2023-05-10T20:04:27.653Z,12
2023-05-10T20:06:58.645Z,12
2023-05-10T20:09:29.654Z,9
2023-05-10T20:12:02.901Z,12
2023-05-10T20:14:37.242Z,11
2023-05-10T20:17:10.914Z,10
2023-05-10T20:19:41.176Z,11
2023-05-10T20:22:11.550Z,8
2023-05-10T20:24:46.937Z,8
2023-05-10T20:27:17.491Z,12
2023-05-10T20:29:49.464Z,14
2023-05-10T20:32:19.320Z,16
2023-05-10T20:34:58.707Z,12
2023-05-10T20:37:32.792Z,12
2023-05-10T20:40:03.200Z,8
2023-05-10T20:42:34.601Z,12
2023-05-10T20:45:05.467Z,8
2023-05-10T20:47:39.935Z,12
2023-05-10T20:50:13.699Z,12
2023-05-10T20:52:49.973Z,12
2023-05-10T20:55:23.723Z,15
2023-05-10T20:57:55.650Z,8
2023-05-10T21:00:26.405Z,8
2023-05-10T21:02:57.035Z,8
2023-05-10T21:05:27.971Z,14
2023-05-10T21:10:30.286Z,13
2023-05-10T21:13:00.777Z,8
2023-05-10T21:15:29.963Z,12
2023-05-10T21:18:02.313Z,10
2023-05-10T21:20:36.440Z,8
2023-05-10T21:23:10.846Z,10
2023-05-10T21:25:41.295Z,20
2023-05-10T21:28:11.631Z,24
2023-05-10T21:30:41.866Z,9
2023-05-10T21:33:12.557Z,8
2023-05-10T21:35:43.195Z,13
2023-05-10T21:38:13.510Z,8
2023-05-10T21:40:44.459Z,10
2023-05-10T21:43:15.191Z,11
2023-05-10T21:45:45.585Z,12
2023-05-10T21:48:20.486Z,12
2023-05-10T21:50:51.290Z,12
2023-05-10T21:53:22.407Z,10
2023-05-10T21:55:56.914Z,8
2023-05-10T21:58:33.344Z,11
2023-05-10T22:01:09.101Z,8
2023-05-10T22:03:39.997Z,12
2023-05-10T22:06:10.362Z,11
2023-05-10T22:08:41.140Z,8
2023-05-10T22:11:11.542Z,12
2023-05-10T22:13:42.025Z,9
2023-05-10T22:16:12.575Z,8
2023-05-10T22:18:43.014Z,11
2023-05-10T22:21:14.185Z,10
2023-05-10T22:23:45.039Z,12
2023-05-10T22:26:15.674Z,12
2023-05-10T22:28:46.698Z,9
2023-05-10T22:31:17.590Z,12
2023-05-10T22:33:48.236Z,12
2023-05-10T22:36:18.803Z,8
2023-05-10T22:38:49.333Z,8
2023-05-10T22:41:20.321Z,12
2023-05-10T22:43:51.522Z,8
2023-05-10T22:46:22.408Z,8
2023-05-10T22:48:53.097Z,12
2023-05-10T22:51:22.279Z,8
2023-05-10T22:53:52.847Z,8
2023-05-10T22:56:23.474Z,8
2023-05-10T22:58:54.311Z,12
2023-05-10T23:01:25.596Z,8
2023-05-10T23:03:56.368Z,8
2023-05-10T23:06:27.153Z,8
2023-05-10T23:08:58.161Z,8
2023-05-10T23:11:28.807Z,8
2023-05-10T23:13:59.565Z,8
2023-05-10T23:16:30.620Z,8
2023-05-10T23:19:01.189Z,12
2023-05-10T23:21:32.267Z,12
2023-05-10T23:24:03.009Z,12
2023-05-10T23:26:33.499Z,11
2023-05-10T23:29:04.222Z,11
2023-05-10T23:31:34.724Z,10
2023-05-10T23:34:05.489Z,8
2023-05-10T23:36:36.187Z,8
2023-05-10T23:39:06.840Z,9
2023-05-10T23:41:37.429Z,8
2023-05-10T23:44:08.066Z,8
2023-05-10T23:46:38.604Z,8
2023-05-10T23:49:09.429Z,8
2023-05-10T23:51:39.879Z,8
2023-05-10T23:54:10.641Z,8
2023-05-10T23:56:41.263Z,11
2023-05-10T23:59:11.458Z,11
